Keyport, Washington
Current Conditions -  °F | °C
As of 4:15 PM on Saturday 25 Oct 2014 (Local Time) from KPWT Reporting Station
Overcast Overcast  
Wind Chill: 54°   Ceiling: 3600
Heat Index: 54°   Visibility: 10mi
Dew Point: 54°   Wind: 0mph
Humidity: 100%   Direction: NA
Pressure: 29.3"   Gusts: NA
Location:  47.7°N, 122.62°W
Report Text: KPWT 252315Z AUTO 00000KT 10SM OVC036 12/12 A2930 RMK AO1
Loading
Personal Weather Stations






























Interactive Weather Map
Tropical Storm Tracking
New forecast layout! Learn more

10-Day Weather Forecast

Advertisements
Track Severe Weather on mobile